sensor_id;sensor_type;location;lat;lon;timestamp;P1;durP1;ratioP1;P2;durP2;ratioP2
44722;SDS011;30451;48.638;10.624;2022-09-03T00:07:50;0.93;;;0.60;;
44722;SDS011;30451;48.638;10.624;2022-09-03T00:10:31;1.50;;;0.80;;
44722;SDS011;30451;48.638;10.624;2022-09-03T00:13:09;0.85;;;0.60;;
44722;SDS011;30451;48.638;10.624;2022-09-03T00:15:40;1.00;;;0.60;;
44722;SDS011;30451;48.638;10.624;2022-09-03T00:18:08;0.65;;;0.50;;
44722;SDS011;30451;48.638;10.624;2022-09-03T00:20:44;0.80;;;0.70;;
44722;SDS011;30451;48.638;10.624;2022-09-03T00:23:17;0.93;;;0.63;;
44722;SDS011;30451;48.638;10.624;2022-09-03T00:31:31;0.63;;;0.60;;
44722;SDS011;30451;48.638;10.624;2022-09-03T00:34:11;0.55;;;0.50;;
44722;SDS011;30451;48.638;10.624;2022-09-03T00:36:50;0.70;;;0.57;;
44722;SDS011;30451;48.638;10.624;2022-09-03T00:39:18;0.40;;;0.40;;
44722;SDS011;30451;48.638;10.624;2022-09-03T00:47:14;1.65;;;0.60;;
44722;SDS011;30451;48.638;10.624;2022-09-03T00:53:02;0.50;;;0.50;;
44722;SDS011;30451;48.638;10.624;2022-09-03T01:04:55;0.50;;;0.50;;
44722;SDS011;30451;48.638;10.624;2022-09-03T01:10:26;0.65;;;0.60;;
44722;SDS011;30451;48.638;10.624;2022-09-03T01:13:07;0.75;;;0.68;;
44722;SDS011;30451;48.638;10.624;2022-09-03T01:18:56;0.77;;;0.60;;
44722;SDS011;30451;48.638;10.624;2022-09-03T01:35:12;0.60;;;0.60;;
44722;SDS011;30451;48.638;10.624;2022-09-03T01:38:06;0.98;;;0.50;;
44722;SDS011;30451;48.638;10.624;2022-09-03T01:43:57;0.60;;;0.60;;
44722;SDS011;30451;48.638;10.624;2022-09-03T01:46:41;0.65;;;0.60;;
44722;SDS011;30451;48.638;10.624;2022-09-03T01:49:23;0.40;;;0.40;;
44722;SDS011;30451;48.638;10.624;2022-09-03T01:52:17;0.50;;;0.50;;
44722;SDS011;30451;48.638;10.624;2022-09-03T01:57:42;0.82;;;0.60;;
44722;SDS011;30451;48.638;10.624;2022-09-03T02:00:16;0.50;;;0.50;;
44722;SDS011;30451;48.638;10.624;2022-09-03T02:02:48;0.60;;;0.50;;
44722;SDS011;30451;48.638;10.624;2022-09-03T02:05:24;0.50;;;0.50;;
44722;SDS011;30451;48.638;10.624;2022-09-03T02:10:26;0.60;;;0.50;;
44722;SDS011;30451;48.638;10.624;2022-09-03T02:13:01;0.60;;;0.57;;
44722;SDS011;30451;48.638;10.624;2022-09-03T02:15:34;0.63;;;0.50;;
44722;SDS011;30451;48.638;10.624;2022-09-03T02:18:03;0.70;;;0.50;;
44722;SDS011;30451;48.638;10.624;2022-09-03T02:20:32;0.60;;;0.50;;
44722;SDS011;30451;48.638;10.624;2022-09-03T02:22:58;0.40;;;0.40;;
44722;SDS011;30451;48.638;10.624;2022-09-03T02:25:28;0.50;;;0.50;;
44722;SDS011;30451;48.638;10.624;2022-09-03T02:27:59;0.50;;;0.50;;
44722;SDS011;30451;48.638;10.624;2022-09-03T02:30:25;0.80;;;0.50;;
44722;SDS011;30451;48.638;10.624;2022-09-03T02:32:51;0.50;;;0.50;;
44722;SDS011;30451;48.638;10.624;2022-09-03T02:35:17;0.50;;;0.50;;
44722;SDS011;30451;48.638;10.624;2022-09-03T02:37:43;0.50;;;0.50;;
44722;SDS011;30451;48.638;10.624;2022-09-03T02:40:09;0.45;;;0.40;;
44722;SDS011;30451;48.638;10.624;2022-09-03T02:42:35;0.98;;;0.60;;
44722;SDS011;30451;48.638;10.624;2022-09-03T02:45:23;0.60;;;0.60;;
44722;SDS011;30451;48.638;10.624;2022-09-03T02:47:54;0.40;;;0.40;;
44722;SDS011;30451;48.638;10.624;2022-09-03T02:52:47;0.60;;;0.60;;
44722;SDS011;30451;48.638;10.624;2022-09-03T02:55:13;1.15;;;0.60;;
44722;SDS011;30451;48.638;10.624;2022-09-03T02:57:39;0.65;;;0.50;;
44722;SDS011;30451;48.638;10.624;2022-09-03T03:00:05;0.60;;;0.55;;
44722;SDS011;30451;48.638;10.624;2022-09-03T03:02:32;0.50;;;0.50;;
44722;SDS011;30451;48.638;10.624;2022-09-03T03:04:58;0.77;;;0.70;;
44722;SDS011;30451;48.638;10.624;2022-09-03T03:07:24;0.65;;;0.60;;
44722;SDS011;30451;48.638;10.624;2022-09-03T03:09:50;0.43;;;0.43;;
44722;SDS011;30451;48.638;10.624;2022-09-03T03:12:16;0.90;;;0.60;;
44722;SDS011;30451;48.638;10.624;2022-09-03T03:14:42;0.47;;;0.47;;
44722;SDS011;30451;48.638;10.624;2022-09-03T03:17:07;0.77;;;0.60;;
44722;SDS011;30451;48.638;10.624;2022-09-03T03:19:33;0.47;;;0.47;;
44722;SDS011;30451;48.638;10.624;2022-09-03T03:21:59;0.50;;;0.50;;
44722;SDS011;30451;48.638;10.624;2022-09-03T03:24:24;0.77;;;0.55;;
44722;SDS011;30451;48.638;10.624;2022-09-03T03:26:53;0.50;;;0.50;;
44722;SDS011;30451;48.638;10.624;2022-09-03T03:29:21;0.55;;;0.50;;
44722;SDS011;30451;48.638;10.624;2022-09-03T03:31:49;0.82;;;0.60;;
44722;SDS011;30451;48.638;10.624;2022-09-03T03:34:15;1.35;;;0.60;;
44722;SDS011;30451;48.638;10.624;2022-09-03T03:36:41;0.52;;;0.50;;
44722;SDS011;30451;48.638;10.624;2022-09-03T03:39:06;0.65;;;0.57;;
44722;SDS011;30451;48.638;10.624;2022-09-03T03:41:33;0.60;;;0.60;;
44722;SDS011;30451;48.638;10.624;2022-09-03T03:44:01;0.73;;;0.57;;
44722;SDS011;30451;48.638;10.624;2022-09-03T03:46:29;0.53;;;0.50;;
44722;SDS011;30451;48.638;10.624;2022-09-03T03:48:57;0.45;;;0.45;;
44722;SDS011;30451;48.638;10.624;2022-09-03T03:51:23;0.38;;;0.38;;
44722;SDS011;30451;48.638;10.624;2022-09-03T03:53:52;0.75;;;0.50;;
44722;SDS011;30451;48.638;10.624;2022-09-03T03:56:19;0.90;;;0.70;;
44722;SDS011;30451;48.638;10.624;2022-09-03T03:58:45;0.50;;;0.50;;
44722;SDS011;30451;48.638;10.624;2022-09-03T04:01:16;0.88;;;0.43;;
44722;SDS011;30451;48.638;10.624;2022-09-03T04:03:42;0.60;;;0.50;;
44722;SDS011;30451;48.638;10.624;2022-09-03T04:06:09;0.88;;;0.75;;
44722;SDS011;30451;48.638;10.624;2022-09-03T04:08:36;0.63;;;0.52;;
44722;SDS011;30451;48.638;10.624;2022-09-03T04:11:04;0.52;;;0.50;;
44722;SDS011;30451;48.638;10.624;2022-09-03T04:13:33;0.60;;;0.50;;
44722;SDS011;30451;48.638;10.624;2022-09-03T04:16:01;0.40;;;0.40;;
44722;SDS011;30451;48.638;10.624;2022-09-03T04:18:28;0.40;;;0.40;;
44722;SDS011;30451;48.638;10.624;2022-09-03T04:20:58;0.82;;;0.55;;
44722;SDS011;30451;48.638;10.624;2022-09-03T04:23:28;0.57;;;0.52;;
44722;SDS011;30451;48.638;10.624;2022-09-03T04:25:55;0.40;;;0.40;;
44722;SDS011;30451;48.638;10.624;2022-09-03T04:28:20;0.93;;;0.60;;
44722;SDS011;30451;48.638;10.624;2022-09-03T04:30:46;0.60;;;0.50;;
44722;SDS011;30451;48.638;10.624;2022-09-03T04:33:12;0.70;;;0.60;;
44722;SDS011;30451;48.638;10.624;2022-09-03T04:35:37;0.50;;;0.50;;
44722;SDS011;30451;48.638;10.624;2022-09-03T04:38:05;0.50;;;0.50;;
44722;SDS011;30451;48.638;10.624;2022-09-03T04:40:31;0.95;;;0.60;;
44722;SDS011;30451;48.638;10.624;2022-09-03T04:42:58;0.82;;;0.60;;
44722;SDS011;30451;48.638;10.624;2022-09-03T04:45:24;0.50;;;0.50;;
44722;SDS011;30451;48.638;10.624;2022-09-03T04:47:59;1.10;;;0.45;;
44722;SDS011;30451;48.638;10.624;2022-09-03T04:50:26;0.57;;;0.57;;
44722;SDS011;30451;48.638;10.624;2022-09-03T04:52:54;0.60;;;0.60;;
44722;SDS011;30451;48.638;10.624;2022-09-03T04:55:24;0.50;;;0.50;;
44722;SDS011;30451;48.638;10.624;2022-09-03T04:57:50;0.50;;;0.50;;
44722;SDS011;30451;48.638;10.624;2022-09-03T05:00:16;0.60;;;0.50;;
44722;SDS011;30451;48.638;10.624;2022-09-03T05:02:45;0.70;;;0.60;;
44722;SDS011;30451;48.638;10.624;2022-09-03T05:05:13;0.60;;;0.60;;
44722;SDS011;30451;48.638;10.624;2022-09-03T05:07:38;0.40;;;0.40;;
44722;SDS011;30451;48.638;10.624;2022-09-03T05:10:05;0.77;;;0.52;;
44722;SDS011;30451;48.638;10.624;2022-09-03T05:12:32;0.70;;;0.50;;
44722;SDS011;30451;48.638;10.624;2022-09-03T05:14:58;0.60;;;0.57;;
44722;SDS011;30451;48.638;10.624;2022-09-03T05:17:24;0.82;;;0.50;;
44722;SDS011;30451;48.638;10.624;2022-09-03T05:19:50;0.75;;;0.52;;
44722;SDS011;30451;48.638;10.624;2022-09-03T05:22:16;0.68;;;0.60;;
44722;SDS011;30451;48.638;10.624;2022-09-03T05:24:45;0.90;;;0.73;;
44722;SDS011;30451;48.638;10.624;2022-09-03T05:27:12;1.35;;;0.70;;
44722;SDS011;30451;48.638;10.624;2022-09-03T05:29:41;1.37;;;0.70;;
44722;SDS011;30451;48.638;10.624;2022-09-03T05:32:08;1.10;;;0.70;;
44722;SDS011;30451;48.638;10.624;2022-09-03T05:34:34;1.75;;;0.90;;
44722;SDS011;30451;48.638;10.624;2022-09-03T05:36:59;1.50;;;0.70;;
44722;SDS011;30451;48.638;10.624;2022-09-03T05:39:25;1.02;;;0.60;;
44722;SDS011;30451;48.638;10.624;2022-09-03T05:41:50;2.17;;;1.10;;
44722;SDS011;30451;48.638;10.624;2022-09-03T05:44:17;0.90;;;0.57;;
44722;SDS011;30451;48.638;10.624;2022-09-03T05:46:43;1.55;;;0.70;;
44722;SDS011;30451;48.638;10.624;2022-09-03T05:49:08;1.02;;;0.60;;
44722;SDS011;30451;48.638;10.624;2022-09-03T05:51:36;1.15;;;0.60;;
44722;SDS011;30451;48.638;10.624;2022-09-03T05:54:06;0.63;;;0.60;;
44722;SDS011;30451;48.638;10.624;2022-09-03T05:56:33;0.55;;;0.55;;
44722;SDS011;30451;48.638;10.624;2022-09-03T05:59:01;0.80;;;0.60;;
44722;SDS011;30451;48.638;10.624;2022-09-03T06:04:06;1.30;;;0.70;;
44722;SDS011;30451;48.638;10.624;2022-09-03T06:06:35;1.17;;;0.60;;
44722;SDS011;30451;48.638;10.624;2022-09-03T06:09:03;0.77;;;0.60;;
44722;SDS011;30451;48.638;10.624;2022-09-03T06:11:40;0.88;;;0.65;;
44722;SDS011;30451;48.638;10.624;2022-09-03T06:14:07;0.80;;;0.60;;
44722;SDS011;30451;48.638;10.624;2022-09-03T06:16:36;0.80;;;0.70;;
44722;SDS011;30451;48.638;10.624;2022-09-03T06:19:03;1.17;;;0.80;;
44722;SDS011;30451;48.638;10.624;2022-09-03T06:21:31;0.77;;;0.65;;
44722;SDS011;30451;48.638;10.624;2022-09-03T06:23:57;0.95;;;0.70;;
44722;SDS011;30451;48.638;10.624;2022-09-03T06:26:23;1.02;;;0.60;;
44722;SDS011;30451;48.638;10.624;2022-09-03T06:28:49;0.73;;;0.70;;
44722;SDS011;30451;48.638;10.624;2022-09-03T06:31:18;0.63;;;0.60;;
44722;SDS011;30451;48.638;10.624;2022-09-03T06:33:44;0.82;;;0.60;;
44722;SDS011;30451;48.638;10.624;2022-09-03T06:36:15;1.33;;;0.88;;
44722;SDS011;30451;48.638;10.624;2022-09-03T06:38:42;0.73;;;0.50;;
44722;SDS011;30451;48.638;10.624;2022-09-03T06:41:10;0.90;;;0.70;;
44722;SDS011;30451;48.638;10.624;2022-09-03T06:43:39;0.65;;;0.60;;
44722;SDS011;30451;48.638;10.624;2022-09-03T06:46:10;0.82;;;0.60;;
44722;SDS011;30451;48.638;10.624;2022-09-03T06:48:37;1.27;;;0.70;;
44722;SDS011;30451;48.638;10.624;2022-09-03T06:51:06;1.70;;;0.70;;
44722;SDS011;30451;48.638;10.624;2022-09-03T06:53:33;0.65;;;0.60;;
44722;SDS011;30451;48.638;10.624;2022-09-03T06:56:02;1.08;;;0.80;;
44722;SDS011;30451;48.638;10.624;2022-09-03T06:58:35;0.65;;;0.50;;
44722;SDS011;30451;48.638;10.624;2022-09-03T07:01:15;0.80;;;0.60;;
44722;SDS011;30451;48.638;10.624;2022-09-03T07:03:51;0.60;;;0.60;;
44722;SDS011;30451;48.638;10.624;2022-09-03T07:06:20;1.00;;;0.70;;
44722;SDS011;30451;48.638;10.624;2022-09-03T07:08:46;1.73;;;0.88;;
44722;SDS011;30451;48.638;10.624;2022-09-03T07:11:13;1.27;;;0.77;;
44722;SDS011;30451;48.638;10.624;2022-09-03T07:13:41;1.23;;;0.80;;
44722;SDS011;30451;48.638;10.624;2022-09-03T07:16:09;1.10;;;0.70;;
44722;SDS011;30451;48.638;10.624;2022-09-03T07:18:37;1.20;;;0.70;;
44722;SDS011;30451;48.638;10.624;2022-09-03T07:21:04;0.68;;;0.65;;
44722;SDS011;30451;48.638;10.624;2022-09-03T07:23:32;1.00;;;0.70;;
44722;SDS011;30451;48.638;10.624;2022-09-03T07:25:59;1.23;;;0.68;;
44722;SDS011;30451;48.638;10.624;2022-09-03T07:28:27;1.33;;;0.77;;
44722;SDS011;30451;48.638;10.624;2022-09-03T07:30:59;1.45;;;0.80;;
44722;SDS011;30451;48.638;10.624;2022-09-03T07:33:28;1.05;;;0.70;;
44722;SDS011;30451;48.638;10.624;2022-09-03T07:35:55;0.90;;;0.70;;
44722;SDS011;30451;48.638;10.624;2022-09-03T07:38:26;0.88;;;0.60;;
44722;SDS011;30451;48.638;10.624;2022-09-03T07:40:58;1.15;;;0.70;;
44722;SDS011;30451;48.638;10.624;2022-09-03T07:43:28;1.10;;;0.70;;
44722;SDS011;30451;48.638;10.624;2022-09-03T07:45:57;1.33;;;0.70;;
44722;SDS011;30451;48.638;10.624;2022-09-03T07:48:25;0.80;;;0.60;;
44722;SDS011;30451;48.638;10.624;2022-09-03T07:50:51;0.90;;;0.70;;
44722;SDS011;30451;48.638;10.624;2022-09-03T07:53:18;1.38;;;0.70;;
44722;SDS011;30451;48.638;10.624;2022-09-03T07:55:46;1.00;;;0.60;;
44722;SDS011;30451;48.638;10.624;2022-09-03T07:58:12;1.10;;;0.70;;
44722;SDS011;30451;48.638;10.624;2022-09-03T08:00:38;1.10;;;0.80;;
44722;SDS011;30451;48.638;10.624;2022-09-03T08:03:04;1.05;;;0.90;;
44722;SDS011;30451;48.638;10.624;2022-09-03T08:05:32;0.88;;;0.70;;
44722;SDS011;30451;48.638;10.624;2022-09-03T08:08:00;1.10;;;0.75;;
44722;SDS011;30451;48.638;10.624;2022-09-03T08:10:27;0.85;;;0.70;;
44722;SDS011;30451;48.638;10.624;2022-09-03T08:12:55;1.35;;;0.70;;
44722;SDS011;30451;48.638;10.624;2022-09-03T08:15:22;0.50;;;0.50;;
44722;SDS011;30451;48.638;10.624;2022-09-03T08:17:48;0.90;;;0.73;;
44722;SDS011;30451;48.638;10.624;2022-09-03T08:20:14;0.90;;;0.57;;
44722;SDS011;30451;48.638;10.624;2022-09-03T08:22:40;0.68;;;0.60;;
44722;SDS011;30451;48.638;10.624;2022-09-03T08:25:06;1.02;;;0.80;;
44722;SDS011;30451;48.638;10.624;2022-09-03T08:27:31;0.60;;;0.60;;
44722;SDS011;30451;48.638;10.624;2022-09-03T08:29:57;0.68;;;0.60;;
44722;SDS011;30451;48.638;10.624;2022-09-03T08:32:23;0.70;;;0.65;;
44722;SDS011;30451;48.638;10.624;2022-09-03T08:34:48;0.70;;;0.70;;
44722;SDS011;30451;48.638;10.624;2022-09-03T08:37:16;1.30;;;0.70;;
44722;SDS011;30451;48.638;10.624;2022-09-03T08:39:42;1.20;;;0.60;;
44722;SDS011;30451;48.638;10.624;2022-09-03T08:42:12;0.50;;;0.50;;
44722;SDS011;30451;48.638;10.624;2022-09-03T08:45:02;0.65;;;0.57;;
44722;SDS011;30451;48.638;10.624;2022-09-03T08:47:40;0.70;;;0.60;;
44722;SDS011;30451;48.638;10.624;2022-09-03T08:52:58;0.65;;;0.60;;
44722;SDS011;30451;48.638;10.624;2022-09-03T08:58:22;0.82;;;0.60;;
44722;SDS011;30451;48.638;10.624;2022-09-03T09:03:41;1.00;;;0.65;;
44722;SDS011;30451;48.638;10.624;2022-09-03T09:06:34;0.80;;;0.52;;
44722;SDS011;30451;48.638;10.624;2022-09-03T09:15:03;0.70;;;0.70;;
44722;SDS011;30451;48.638;10.624;2022-09-03T09:25:44;0.50;;;0.50;;
44722;SDS011;30451;48.638;10.624;2022-09-03T09:28:16;1.27;;;0.70;;
44722;SDS011;30451;48.638;10.624;2022-09-03T09:30:47;0.70;;;0.65;;
44722;SDS011;30451;48.638;10.624;2022-09-03T09:33:15;0.75;;;0.60;;
44722;SDS011;30451;48.638;10.624;2022-09-03T09:35:42;0.75;;;0.70;;
44722;SDS011;30451;48.638;10.624;2022-09-03T09:38:09;1.13;;;0.80;;
44722;SDS011;30451;48.638;10.624;2022-09-03T09:40:36;0.98;;;0.70;;
44722;SDS011;30451;48.638;10.624;2022-09-03T09:43:08;1.33;;;0.70;;
44722;SDS011;30451;48.638;10.624;2022-09-03T09:45:35;1.00;;;0.70;;
44722;SDS011;30451;48.638;10.624;2022-09-03T09:48:05;0.53;;;0.53;;
44722;SDS011;30451;48.638;10.624;2022-09-03T09:50:34;0.50;;;0.50;;
44722;SDS011;30451;48.638;10.624;2022-09-03T09:53:06;0.70;;;0.60;;
44722;SDS011;30451;48.638;10.624;2022-09-03T09:55:48;1.02;;;0.77;;
44722;SDS011;30451;48.638;10.624;2022-09-03T09:58:17;1.20;;;0.80;;
44722;SDS011;30451;48.638;10.624;2022-09-03T10:03:51;0.63;;;0.63;;
44722;SDS011;30451;48.638;10.624;2022-09-03T10:06:22;1.00;;;0.70;;
44722;SDS011;30451;48.638;10.624;2022-09-03T10:09:11;0.80;;;0.70;;
44722;SDS011;30451;48.638;10.624;2022-09-03T10:11:42;1.08;;;0.70;;
44722;SDS011;30451;48.638;10.624;2022-09-03T10:14:31;0.85;;;0.60;;
44722;SDS011;30451;48.638;10.624;2022-09-03T10:17:15;0.80;;;0.60;;
44722;SDS011;30451;48.638;10.624;2022-09-03T10:22:53;1.02;;;0.80;;
44722;SDS011;30451;48.638;10.624;2022-09-03T10:26:13;1.10;;;0.70;;
44722;SDS011;30451;48.638;10.624;2022-09-03T10:28:58;0.70;;;0.70;;
44722;SDS011;30451;48.638;10.624;2022-09-03T10:31:41;0.75;;;0.70;;
44722;SDS011;30451;48.638;10.624;2022-09-03T10:37:18;1.30;;;0.80;;
44722;SDS011;30451;48.638;10.624;2022-09-03T10:40:33;0.90;;;0.70;;
44722;SDS011;30451;48.638;10.624;2022-09-03T10:43:07;0.80;;;0.75;;
44722;SDS011;30451;48.638;10.624;2022-09-03T10:52:06;1.35;;;0.70;;
44722;SDS011;30451;48.638;10.624;2022-09-03T10:56:50;0.80;;;0.60;;
44722;SDS011;30451;48.638;10.624;2022-09-03T11:02:35;1.27;;;0.90;;
44722;SDS011;30451;48.638;10.624;2022-09-03T11:07:56;1.42;;;0.80;;
44722;SDS011;30451;48.638;10.624;2022-09-03T11:10:46;0.63;;;0.63;;
44722;SDS011;30451;48.638;10.624;2022-09-03T11:13:19;1.10;;;0.80;;
44722;SDS011;30451;48.638;10.624;2022-09-03T11:16:01;1.63;;;0.75;;
44722;SDS011;30451;48.638;10.624;2022-09-03T11:18:35;0.70;;;0.70;;
44722;SDS011;30451;48.638;10.624;2022-09-03T11:21:07;1.02;;;0.68;;
44722;SDS011;30451;48.638;10.624;2022-09-03T11:23:37;2.83;;;1.00;;
44722;SDS011;30451;48.638;10.624;2022-09-03T11:26:07;1.17;;;0.70;;
44722;SDS011;30451;48.638;10.624;2022-09-03T11:29:40;1.48;;;0.80;;
44722;SDS011;30451;48.638;10.624;2022-09-03T11:31:52;2.75;;;0.90;;
44722;SDS011;30451;48.638;10.624;2022-09-03T11:34:31;0.75;;;0.65;;
44722;SDS011;30451;48.638;10.624;2022-09-03T11:37:16;1.33;;;0.80;;
44722;SDS011;30451;48.638;10.624;2022-09-03T11:39:51;1.20;;;0.77;;
44722;SDS011;30451;48.638;10.624;2022-09-03T11:42:35;1.10;;;0.80;;
44722;SDS011;30451;48.638;10.624;2022-09-03T11:47:44;0.70;;;0.70;;
44722;SDS011;30451;48.638;10.624;2022-09-03T11:52:51;1.13;;;0.70;;
44722;SDS011;30451;48.638;10.624;2022-09-03T11:55:28;1.92;;;0.88;;
44722;SDS011;30451;48.638;10.624;2022-09-03T12:00:34;1.55;;;0.70;;
44722;SDS011;30451;48.638;10.624;2022-09-03T12:03:02;1.67;;;0.80;;
44722;SDS011;30451;48.638;10.624;2022-09-03T12:05:35;1.67;;;0.80;;
44722;SDS011;30451;48.638;10.624;2022-09-03T12:13:47;1.17;;;0.80;;
44722;SDS011;30451;48.638;10.624;2022-09-03T12:16:24;2.53;;;0.68;;
44722;SDS011;30451;48.638;10.624;2022-09-03T12:19:08;1.08;;;0.70;;
44722;SDS011;30451;48.638;10.624;2022-09-03T12:21:46;1.42;;;0.80;;
44722;SDS011;30451;48.638;10.624;2022-09-03T12:24:13;1.30;;;0.68;;
44722;SDS011;30451;48.638;10.624;2022-09-03T12:26:40;1.00;;;0.70;;
44722;SDS011;30451;48.638;10.624;2022-09-03T12:29:17;1.08;;;0.70;;
44722;SDS011;30451;48.638;10.624;2022-09-03T12:31:47;1.77;;;0.60;;
44722;SDS011;30451;48.638;10.624;2022-09-03T12:34:15;1.85;;;0.90;;
44722;SDS011;30451;48.638;10.624;2022-09-03T12:36:46;2.30;;;0.70;;
44722;SDS011;30451;48.638;10.624;2022-09-03T12:44:31;1.08;;;0.70;;
44722;SDS011;30451;48.638;10.624;2022-09-03T12:47:10;1.27;;;0.70;;
44722;SDS011;30451;48.638;10.624;2022-09-03T12:49:41;0.93;;;0.70;;
44722;SDS011;30451;48.638;10.624;2022-09-03T12:52:32;1.02;;;0.85;;
44722;SDS011;30451;48.638;10.624;2022-09-03T12:55:09;0.70;;;0.60;;
44722;SDS011;30451;48.638;10.624;2022-09-03T12:57:48;1.05;;;0.70;;
44722;SDS011;30451;48.638;10.624;2022-09-03T13:00:20;0.90;;;0.70;;
44722;SDS011;30451;48.638;10.624;2022-09-03T13:08:09;1.55;;;0.70;;
44722;SDS011;30451;48.638;10.624;2022-09-03T13:10:42;1.27;;;0.80;;
44722;SDS011;30451;48.638;10.624;2022-09-03T13:13:21;2.20;;;0.90;;
44722;SDS011;30451;48.638;10.624;2022-09-03T13:15:59;1.40;;;0.70;;
44722;SDS011;30451;48.638;10.624;2022-09-03T13:21:20;1.20;;;0.80;;
44722;SDS011;30451;48.638;10.624;2022-09-03T13:27:03;1.70;;;0.90;;
44722;SDS011;30451;48.638;10.624;2022-09-03T13:32:41;1.52;;;0.90;;
44722;SDS011;30451;48.638;10.624;2022-09-03T13:35:18;2.22;;;0.70;;
44722;SDS011;30451;48.638;10.624;2022-09-03T13:37:53;1.17;;;0.70;;
44722;SDS011;30451;48.638;10.624;2022-09-03T13:41:24;1.25;;;0.70;;
44722;SDS011;30451;48.638;10.624;2022-09-03T13:43:47;1.92;;;0.80;;
44722;SDS011;30451;48.638;10.624;2022-09-03T13:46:40;1.85;;;0.90;;
44722;SDS011;30451;48.638;10.624;2022-09-03T13:52:17;1.63;;;0.93;;
44722;SDS011;30451;48.638;10.624;2022-09-03T13:54:51;1.85;;;0.98;;
44722;SDS011;30451;48.638;10.624;2022-09-03T13:59:50;1.58;;;0.90;;
44722;SDS011;30451;48.638;10.624;2022-09-03T14:05:03;1.42;;;0.93;;
44722;SDS011;30451;48.638;10.624;2022-09-03T14:10:22;1.75;;;1.00;;
44722;SDS011;30451;48.638;10.624;2022-09-03T14:19:09;2.15;;;1.10;;
44722;SDS011;30451;48.638;10.624;2022-09-03T14:21:46;1.80;;;1.00;;
44722;SDS011;30451;48.638;10.624;2022-09-03T14:24:25;1.35;;;0.90;;
44722;SDS011;30451;48.638;10.624;2022-09-03T14:26:59;1.50;;;0.90;;
44722;SDS011;30451;48.638;10.624;2022-09-03T14:29:29;1.20;;;0.90;;
44722;SDS011;30451;48.638;10.624;2022-09-03T14:32:03;1.27;;;0.90;;
44722;SDS011;30451;48.638;10.624;2022-09-03T14:42:44;2.65;;;1.30;;
44722;SDS011;30451;48.638;10.624;2022-09-03T15:01:43;2.38;;;1.00;;
44722;SDS011;30451;48.638;10.624;2022-09-03T15:04:25;1.80;;;1.10;;
44722;SDS011;30451;48.638;10.624;2022-09-03T15:07:27;1.25;;;0.90;;
44722;SDS011;30451;48.638;10.624;2022-09-03T15:13:05;2.17;;;1.15;;
44722;SDS011;30451;48.638;10.624;2022-09-03T15:15:45;1.65;;;0.90;;
44722;SDS011;30451;48.638;10.624;2022-09-03T15:19:06;2.15;;;1.00;;
44722;SDS011;30451;48.638;10.624;2022-09-03T15:21:24;2.42;;;0.85;;
44722;SDS011;30451;48.638;10.624;2022-09-03T15:26:59;1.92;;;0.98;;
44722;SDS011;30451;48.638;10.624;2022-09-03T15:29:48;1.55;;;0.85;;
44722;SDS011;30451;48.638;10.624;2022-09-03T15:32:42;1.90;;;0.93;;
44722;SDS011;30451;48.638;10.624;2022-09-03T15:38:05;2.10;;;1.13;;
44722;SDS011;30451;48.638;10.624;2022-09-03T15:40:54;2.05;;;1.00;;
44722;SDS011;30451;48.638;10.624;2022-09-03T15:43:26;2.08;;;1.10;;
44722;SDS011;30451;48.638;10.624;2022-09-03T15:48:33;3.17;;;0.93;;
44722;SDS011;30451;48.638;10.624;2022-09-03T15:54:11;2.25;;;0.80;;
44722;SDS011;30451;48.638;10.624;2022-09-03T15:57:02;1.50;;;0.90;;
44722;SDS011;30451;48.638;10.624;2022-09-03T15:59:58;2.42;;;0.90;;
44722;SDS011;30451;48.638;10.624;2022-09-03T16:05:12;1.63;;;0.88;;
44722;SDS011;30451;48.638;10.624;2022-09-03T16:10:13;1.77;;;0.80;;
44722;SDS011;30451;48.638;10.624;2022-09-03T16:12:48;1.75;;;0.70;;
44722;SDS011;30451;48.638;10.624;2022-09-03T16:15:38;1.90;;;1.00;;
44722;SDS011;30451;48.638;10.624;2022-09-03T16:20:33;3.10;;;1.08;;
44722;SDS011;30451;48.638;10.624;2022-09-03T16:23:15;1.85;;;0.80;;
44722;SDS011;30451;48.638;10.624;2022-09-03T16:26:10;3.13;;;1.00;;
44722;SDS011;30451;48.638;10.624;2022-09-03T16:28:47;1.88;;;1.10;;
44722;SDS011;30451;48.638;10.624;2022-09-03T16:31:48;1.85;;;0.98;;
44722;SDS011;30451;48.638;10.624;2022-09-03T16:42:43;1.45;;;0.70;;
44722;SDS011;30451;48.638;10.624;2022-09-03T16:50:23;1.92;;;0.70;;
44722;SDS011;30451;48.638;10.624;2022-09-03T16:56:20;1.90;;;0.80;;
44722;SDS011;30451;48.638;10.624;2022-09-03T17:01:59;1.27;;;0.77;;
44722;SDS011;30451;48.638;10.624;2022-09-03T17:16:28;1.70;;;1.00;;
44722;SDS011;30451;48.638;10.624;2022-09-03T17:43:41;1.27;;;0.70;;
44722;SDS011;30451;48.638;10.624;2022-09-03T17:47:03;2.67;;;0.90;;
44722;SDS011;30451;48.638;10.624;2022-09-03T17:49:31;1.40;;;0.80;;
44722;SDS011;30451;48.638;10.624;2022-09-03T17:52:10;1.48;;;0.80;;
44722;SDS011;30451;48.638;10.624;2022-09-03T17:58:23;1.33;;;0.77;;
44722;SDS011;30451;48.638;10.624;2022-09-03T18:01:19;1.55;;;0.70;;
44722;SDS011;30451;48.638;10.624;2022-09-03T18:03:57;1.48;;;0.60;;
44722;SDS011;30451;48.638;10.624;2022-09-03T18:06:30;1.42;;;0.70;;
44722;SDS011;30451;48.638;10.624;2022-09-03T18:11:47;0.55;;;0.55;;
44722;SDS011;30451;48.638;10.624;2022-09-03T18:14:39;0.82;;;0.60;;
44722;SDS011;30451;48.638;10.624;2022-09-03T18:17:19;0.75;;;0.63;;
44722;SDS011;30451;48.638;10.624;2022-09-03T18:20:02;2.10;;;0.73;;
44722;SDS011;30451;48.638;10.624;2022-09-03T18:26:11;1.45;;;0.82;;
44722;SDS011;30451;48.638;10.624;2022-09-03T18:29:04;1.20;;;0.80;;
44722;SDS011;30451;48.638;10.624;2022-09-03T18:31:53;1.00;;;0.70;;
44722;SDS011;30451;48.638;10.624;2022-09-03T18:34:38;1.67;;;0.80;;
44722;SDS011;30451;48.638;10.624;2022-09-03T18:37:24;1.63;;;0.80;;
44722;SDS011;30451;48.638;10.624;2022-09-03T18:40:10;1.13;;;0.80;;
44722;SDS011;30451;48.638;10.624;2022-09-03T18:43:12;1.45;;;0.70;;
44722;SDS011;30451;48.638;10.624;2022-09-03T18:46:09;2.03;;;0.80;;
44722;SDS011;30451;48.638;10.624;2022-09-03T18:49:10;2.70;;;0.70;;
44722;SDS011;30451;48.638;10.624;2022-09-03T18:52:05;3.05;;;0.88;;
44722;SDS011;30451;48.638;10.624;2022-09-03T19:01:37;2.15;;;0.70;;
44722;SDS011;30451;48.638;10.624;2022-09-03T19:10:28;1.98;;;0.80;;
44722;SDS011;30451;48.638;10.624;2022-09-03T19:13:33;1.00;;;0.88;;
44722;SDS011;30451;48.638;10.624;2022-09-03T19:22:26;1.95;;;0.65;;
44722;SDS011;30451;48.638;10.624;2022-09-03T19:25:19;4.40;;;0.80;;
44722;SDS011;30451;48.638;10.624;2022-09-03T19:28:10;1.00;;;0.60;;
44722;SDS011;30451;48.638;10.624;2022-09-03T19:37:21;1.20;;;0.73;;
44722;SDS011;30451;48.638;10.624;2022-09-03T19:43:59;2.13;;;0.70;;
44722;SDS011;30451;48.638;10.624;2022-09-03T19:46:43;1.55;;;0.70;;
44722;SDS011;30451;48.638;10.624;2022-09-03T19:53:04;1.45;;;0.85;;
44722;SDS011;30451;48.638;10.624;2022-09-03T19:55:58;1.55;;;0.80;;
44722;SDS011;30451;48.638;10.624;2022-09-03T19:58:49;1.42;;;0.70;;
44722;SDS011;30451;48.638;10.624;2022-09-03T20:01:37;1.33;;;0.80;;
44722;SDS011;30451;48.638;10.624;2022-09-03T20:04:40;1.85;;;0.73;;
44722;SDS011;30451;48.638;10.624;2022-09-03T20:07:39;1.42;;;0.70;;
44722;SDS011;30451;48.638;10.624;2022-09-03T20:10:23;2.38;;;0.90;;
44722;SDS011;30451;48.638;10.624;2022-09-03T20:12:54;1.80;;;0.77;;
44722;SDS011;30451;48.638;10.624;2022-09-03T20:37:17;0.93;;;0.60;;
44722;SDS011;30451;48.638;10.624;2022-09-03T20:40:03;1.17;;;0.70;;
44722;SDS011;30451;48.638;10.624;2022-09-03T20:45:36;0.98;;;0.60;;